Terminal Aerodrome Forecast
Issued by NWS Topeka, KS

Home | Current Version | Previous Version | Text Only | Print | Product List | Glossary Off
Versions: 1 2 3 4 5 6 7 8 9 10 11 12 13 14 15 16 17 18

000
FTUS43 KTOP 111600 AAA
TAFTOP
TAF AMD
KTOP 111602Z 1116/1212 19009KT P6SM SCT100
     FM111900 19012G19KT P6SM SCT100
     FM120300 18007KT P6SM FEW250=

USA.gov is the U.S. government's official web portal to all federal, state and local government web resources and services.